.
WxDataArchive / Data Records for 2013-04-15
2013-04-14 April 2013 2013-04-16

Data Records for Monday, 15 April 2013

Time	Temp	Chill	HIndex	Humid	Dewpt	 Wind 	HiWind	WindDir	Rain 	Barom 
-----	----	-----	------	-----	-----	------	------	-------	-----	----- 
00:00	45.2	45.2	45.2	86	41.3	2	6	90	0.00	29.871 
00:05	45.1	45.1	45.1	86	41.2	3	7	68	0.00	29.871 
00:10	44.9	44.9	44.9	86	41.0	2	6	90	0.00	29.871 
00:15	44.8	44.8	44.8	86	40.9	2	5	90	0.00	29.867 
00:20	44.6	44.6	44.6	87	41.0	2	6	112	0.00	29.867 
00:25	44.6	44.6	44.6	87	41.0	2	4	90	0.00	29.867 
00:30	44.5	44.5	44.5	87	40.9	2	5	90	0.00	29.863 
00:35	44.5	44.5	44.5	87	40.9	2	4	90	0.00	29.863 
00:40	44.3	44.3	44.3	87	40.7	2	4	90	0.00	29.863 
00:45	44.2	44.2	44.2	87	40.6	2	6	90	0.00	29.859 
00:50	44.2	44.2	44.2	87	40.6	2	3	90	0.00	29.859 
00:55	44.1	44.1	44.1	88	40.8	2	4	90	0.00	29.859 
01:00	44.1	44.1	44.1	88	40.8	3	4	90	0.00	29.857 
01:05	43.9	43.9	43.9	88	40.6	2	4	90	0.00	29.857 
01:10	43.8	43.8	43.8	88	40.5	2	4	68	0.00	29.857 
01:15	43.8	43.8	43.8	88	40.5	2	5	90	0.00	29.853 
01:20	43.6	43.6	43.6	88	40.3	1	3	90	0.00	29.853 
01:25	43.5	43.5	43.5	88	40.2	1	3	90	0.00	29.853 
01:30	43.5	43.5	43.5	88	40.2	0	2	90	0.00	29.854 
01:35	43.5	43.5	43.5	88	40.2	0	2	90	0.00	29.854 
01:40	43.3	43.3	43.3	89	40.3	0	2	90	0.00	29.854 
01:45	43.3	43.3	43.3	89	40.3	0	1	90	0.00	29.854 
01:50	43.3	43.3	43.3	89	40.3	0	1	90	0.00	29.854 
01:55	43.2	43.2	43.2	89	40.2	1	2	90	0.00	29.854 
02:00	43.2	43.2	43.2	89	40.2	1	2	90	0.00	29.853 
02:05	43.3	43.3	43.3	89	40.3	1	4	90	0.00	29.853 
02:10	43.3	43.3	43.3	89	40.3	1	4	90	0.00	29.853 
02:15	43.3	43.3	43.3	89	40.3	0	4	90	0.00	29.852 
02:20	43.3	43.3	43.3	89	40.3	0	1	90	0.00	29.852 
02:25	43.3	43.3	43.3	89	40.3	0	2	90	0.00	29.852 
02:30	43.3	43.3	43.3	89	40.3	0	2	90	0.00	29.850 
02:35	43.3	43.3	43.3	89	40.3	0	1	90	0.00	29.850 
02:40	43.2	43.2	43.2	89	40.2	0	1	90	0.00	29.850 
02:45	43.1	43.1	43.1	89	40.1	0	1	90	0.00	29.847 
02:50	42.9	42.9	42.9	89	39.9	0	0	---	0.00	29.847 
02:55	42.6	42.6	42.6	89	39.6	0	0	---	0.00	29.847 
03:00	42.3	42.3	42.3	89	39.3	0	0	---	0.00	29.846 
03:05	42.1	42.1	42.1	89	39.1	0	0	---	0.00	29.846 
03:10	41.8	41.8	41.8	89	38.8	0	0	---	0.00	29.846 
03:15	41.5	41.5	41.5	89	38.5	0	0	---	0.00	29.844 
03:20	41.3	41.3	41.3	89	38.3	0	1	90	0.00	29.844 
03:25	41.3	41.3	41.3	90	38.6	0	0	---	0.00	29.844 
03:30	41.2	41.2	41.2	90	38.5	0	0	---	0.00	29.839 
03:35	41.1	41.1	41.1	90	38.4	0	0	---	0.00	29.839 
03:40	40.8	40.8	40.8	90	38.1	0	0	---	0.00	29.839 
03:45	40.6	40.6	40.6	90	37.9	0	0	---	0.00	29.851 
03:50	40.6	40.6	40.6	90	37.9	0	0	---	0.00	29.851 
03:55	40.5	40.5	40.5	90	37.8	0	0	---	0.00	29.851 
04:00	40.3	40.3	40.3	90	37.6	0	0	---	0.00	29.864 
04:05	40.3	40.3	40.3	91	37.9	0	0	---	0.00	29.864 
04:10	40.5	40.5	40.5	91	38.1	0	0	---	0.00	29.864 
04:15	40.3	40.3	40.3	91	37.9	0	0	---	0.00	29.877 
04:20	40.3	40.3	40.3	91	37.9	0	0	---	0.00	29.877 
04:25	40.2	40.2	40.2	91	37.8	0	0	---	0.00	29.877 
04:30	40.1	40.1	40.1	91	37.7	0	0	---	0.00	29.883 
04:35	39.9	39.9	39.9	91	37.5	0	0	---	0.00	29.883 
04:40	39.9	39.9	39.9	91	37.5	0	0	---	0.00	29.883 
04:45	39.6	39.6	39.6	91	37.2	0	0	---	0.00	29.888 
04:50	39.5	39.5	39.5	91	37.1	0	0	---	0.00	29.888 
04:55	39.5	39.5	39.5	92	37.4	0	0	---	0.00	29.888 
05:00	39.5	39.5	39.5	92	37.4	0	0	---	0.00	29.897 
05:05	39.5	39.5	39.5	92	37.4	0	0	---	0.00	29.897 
05:10	39.5	39.5	39.5	92	37.4	0	0	---	0.00	29.897 
05:15	39.5	39.5	39.5	92	37.4	0	0	---	0.00	29.901 
05:20	39.5	39.5	39.5	92	37.4	0	0	---	0.00	29.901 
05:25	39.3	39.3	39.3	92	37.2	0	0	---	0.00	29.901 
05:30	39.3	39.3	39.3	92	37.2	0	0	---	0.00	29.908 
05:35	39.3	39.3	39.3	92	37.2	0	0	---	0.00	29.908 
05:40	39.3	39.3	39.3	92	37.2	0	0	---	0.00	29.908 
05:45	39.3	39.3	39.3	92	37.2	0	0	---	0.00	29.906 
05:50	39.3	39.3	39.3	92	37.2	0	0	---	0.00	29.906 
05:55	39.3	39.3	39.3	92	37.2	0	0	---	0.00	29.906 
06:00	39.3	39.3	39.3	93	37.4	0	0	---	0.00	29.899 
06:05	39.5	39.5	39.5	93	37.6	0	0	---	0.00	29.899 
06:10	39.5	39.5	39.5	93	37.6	0	0	---	0.00	29.899 
06:15	39.6	39.6	39.6	93	37.7	0	0	---	0.00	29.900 
06:20	39.8	39.8	39.8	93	37.9	0	0	---	0.00	29.900 
06:25	39.9	39.9	39.9	93	38.0	0	0	---	0.00	29.900 
06:30	39.9	39.9	39.9	93	38.0	0	0	---	0.00	29.899 
06:35	39.9	39.9	39.9	93	38.0	0	0	---	0.00	29.899 
06:40	39.9	39.9	39.9	93	38.0	0	0	---	0.00	29.899 
06:45	39.9	39.9	39.9	93	38.0	0	0	---	0.00	29.898 
06:50	39.9	39.9	39.9	93	38.0	0	0	---	0.00	29.898 
06:55	39.9	39.9	39.9	93	38.0	0	1	90	0.00	29.898 
07:00	40.1	40.1	40.1	93	38.2	0	0	---	0.00	29.899 
07:05	39.9	39.9	39.9	93	38.0	0	0	---	0.00	29.899 
07:10	39.9	39.9	39.9	93	38.0	0	0	---	0.00	29.899 
07:15	40.2	40.2	40.2	93	38.3	0	1	90	0.00	29.899 
07:20	40.8	40.8	40.8	93	38.9	1	3	90	0.00	29.899 
07:25	41.6	41.6	41.6	93	39.7	0	1	90	0.00	29.899 
07:30	42.1	42.1	42.1	93	40.2	0	0	---	0.00	29.892 
07:35	42.5	42.5	42.5	93	40.6	0	0	---	0.00	29.892 
07:40	43.1	43.1	43.1	93	41.2	0	1	90	0.00	29.892 
07:45	44.1	44.1	44.1	93	42.2	0	1	90	0.00	29.885 
07:50	45.1	45.1	45.1	93	43.2	0	1	90	0.00	29.885 
07:55	45.8	45.8	45.8	92	43.6	0	0	---	0.00	29.885 
08:00	46.7	46.7	46.7	92	44.5	0	1	90	0.00	29.896 
08:05	47.6	47.6	47.6	91	45.1	0	1	90	0.00	29.896 
08:10	48.6	48.6	48.6	90	45.8	0	2	90	0.00	29.896 
08:15	49.5	49.5	49.5	88	46.1	1	3	90	0.00	29.900 
08:20	50.2	50.2	50.2	87	46.5	0	2	112	0.00	29.900 
08:25	51.1	51.1	51.1	86	47.1	0	2	112	0.00	29.900 
08:30	51.9	51.9	51.9	84	47.2	0	1	112	0.00	29.915 
08:35	52.5	52.5	52.5	84	47.8	0	2	158	0.00	29.915 
08:40	53.2	53.2	53.2	82	47.8	1	3	158	0.00	29.915 
08:45	54.1	54.1	54.1	80	48.1	1	4	112	0.00	29.920 
08:50	55.1	55.1	55.1	77	48.0	2	5	112	0.00	29.920 
08:55	55.9	55.9	55.9	75	48.1	2	5	112	0.00	29.920 
09:00	56.5	56.5	56.5	73	47.9	1	3	112	0.00	29.914 
09:05	57.0	57.0	57.0	72	48.1	2	4	112	0.00	29.914 
09:10	57.5	57.5	57.5	72	48.5	2	5	90	0.00	29.914 
09:15	58.0	58.0	58.0	70	48.3	2	6	90	0.00	29.918 
09:20	58.4	58.4	58.4	70	48.7	1	4	90	0.00	29.918 
09:25	59.0	59.0	59.0	69	48.8	2	5	112	0.00	29.918 
09:30	59.3	59.3	59.3	68	48.7	2	11	90	0.00	29.923 
09:35	59.6	59.6	59.6	68	49.0	2	6	45	0.00	29.923 
09:40	60.1	60.1	60.1	67	49.1	2	5	248	0.00	29.923 
09:45	60.4	60.4	60.4	66	49.0	2	6	90	0.00	29.915 
09:50	60.5	60.5	60.5	67	49.5	1	5	270	0.00	29.915 
09:55	60.5	60.5	60.5	65	48.7	3	7	270	0.00	29.915 
10:00	60.5	60.5	60.5	67	49.5	2	7	248	0.00	29.916 
10:05	60.5	60.5	60.5	67	49.5	1	10	158	0.00	29.916 
10:10	60.7	60.7	60.7	67	49.7	1	5	270	0.00	29.916 
10:15	60.9	60.9	60.9	67	49.9	2	4	68	0.00	29.918 
10:20	61.0	61.0	61.0	65	49.1	2	8	0	0.00	29.918 
10:25	60.9	60.9	60.9	66	49.5	2	6	248	0.00	29.918 
10:30	61.0	61.0	61.0	67	50.0	1	5	68	0.00	29.918 
10:35	61.5	61.5	61.5	65	49.6	3	11	248	0.00	29.918 
10:40	62.3	62.3	62.3	65	50.4	3	8	248	0.00	29.918 
10:45	62.9	62.9	62.9	64	50.5	2	7	68	0.00	29.916 
10:50	63.4	63.4	63.4	62	50.1	2	11	68	0.00	29.916 
10:55	63.1	63.1	63.1	62	49.9	3	6	248	0.00	29.916 
11:00	62.7	62.7	62.7	64	50.3	2	6	68	0.00	29.917 
11:05	62.7	62.7	62.7	65	50.8	1	5	315	0.00	29.917 
11:10	63.2	63.2	63.2	63	50.4	2	11	22	0.00	29.917 
11:15	63.9	63.9	63.9	64	51.5	2	5	68	0.00	29.919 
11:20	64.8	64.8	64.8	63	51.9	2	7	90	0.00	29.919 
11:25	65.2	65.2	65.2	60	51.0	2	5	248	0.00	29.919 
11:30	65.0	65.0	65.0	59	50.3	3	10	248	0.00	29.918 
11:35	64.7	64.7	64.7	59	50.0	3	7	270	0.00	29.918 
11:40	64.7	64.7	64.7	60	50.5	4	12	248	0.00	29.918 
11:45	64.5	64.5	64.5	59	49.8	4	9	248	0.00	29.921 
11:50	64.0	64.0	64.0	61	50.3	2	7	248	0.00	29.921 
11:55	63.7	63.7	63.7	61	50.0	2	6	270	0.00	29.921 
12:00	63.5	63.5	63.5	62	50.2	2	7	225	0.00	29.922 
12:05	63.7	63.7	63.7	63	50.9	2	5	270	0.00	29.922 
12:10	64.2	64.2	64.2	61	50.5	3	7	270	0.00	29.922 
12:15	64.5	64.5	64.5	61	50.7	3	6	68	0.00	29.921 
12:20	64.8	64.8	64.8	61	51.0	2	9	248	0.00	29.921 
12:25	65.0	65.0	65.0	62	51.7	1	5	248	0.00	29.921 
12:30	65.6	65.6	65.6	60	51.3	2	7	248	0.00	29.917 
12:35	65.8	65.8	65.8	62	52.4	3	9	90	0.00	29.917 
12:40	65.8	65.8	65.8	59	51.1	3	10	248	0.00	29.917 
12:45	65.8	65.8	65.8	59	51.1	3	9	90	0.00	29.918 
12:50	65.5	65.5	65.5	62	52.1	3	12	90	0.00	29.918 
12:55	65.3	65.3	65.3	62	51.9	3	6	68	0.00	29.918 
13:00	65.3	65.3	65.3	61	51.5	3	7	248	0.00	29.919 
13:05	65.5	65.5	65.5	61	51.7	2	7	90	0.00	29.919 
13:10	65.6	65.6	65.6	61	51.8	2	5	68	0.00	29.919 
13:15	65.8	65.8	65.8	61	52.0	2	7	158	0.00	29.919 
13:20	65.8	65.8	65.8	61	52.0	2	11	90	0.00	29.919 
13:25	65.6	65.6	65.6	61	51.8	2	7	68	0.00	29.919 
13:30	65.6	65.6	65.6	61	51.8	2	5	90	0.00	29.918 
13:35	65.6	65.6	65.6	61	51.8	2	5	248	0.00	29.918 
13:40	65.6	65.6	65.6	62	52.2	2	5	248	0.00	29.918 
13:45	65.8	65.8	65.8	62	52.4	3	6	90	0.00	29.904 
13:50	66.1	66.1	66.1	63	53.1	2	7	90	0.00	29.904 
13:55	66.3	66.3	66.3	61	52.4	2	7	90	0.00	29.904 
14:00	66.3	66.3	66.3	62	52.9	2	7	135	0.00	29.901 
14:05	66.1	66.1	66.1	62	52.7	4	12	68	0.00	29.901 
14:10	66.1	66.1	66.1	61	52.3	4	10	90	0.00	29.901 
14:15	66.3	66.3	66.3	62	52.9	1	6	90	0.00	29.902 
14:20	66.4	66.4	66.4	61	52.5	2	9	158	0.00	29.902 
14:25	66.1	66.1	66.1	61	52.3	2	10	68	0.00	29.902 
14:30	66.0	66.0	66.0	62	52.6	1	7	225	0.00	29.908 
14:35	65.8	65.8	65.8	62	52.4	1	7	248	0.00	29.908 
14:40	65.8	65.8	65.8	61	52.0	2	9	248	0.00	29.908 
14:45	65.6	65.6	65.6	61	51.8	3	6	248	0.00	29.911 
14:50	65.6	65.6	65.6	62	52.2	1	4	270	0.00	29.911 
14:55	65.6	65.6	65.6	62	52.2	2	5	248	0.00	29.911 
15:00	65.5	65.5	65.5	63	52.6	1	6	248	0.00	29.905 
15:05	65.5	65.5	65.5	62	52.1	2	6	248	0.00	29.905 
15:10	65.6	65.6	65.6	63	52.7	2	9	90	0.00	29.905 
15:15	65.8	65.8	65.8	63	52.8	1	4	248	0.00	29.903 
15:20	66.1	66.1	66.1	64	53.6	1	4	68	0.00	29.903 
15:25	66.1	66.1	66.1	62	52.7	1	6	68	0.00	29.903 
15:30	66.0	66.0	66.0	63	53.0	2	6	90	0.00	29.899 
15:35	65.8	65.8	65.8	63	52.8	1	6	248	0.00	29.899 
15:40	66.1	66.1	66.1	64	53.6	1	4	248	0.00	29.899 
15:45	66.3	66.3	66.3	62	52.9	3	10	68	0.00	29.886 
15:50	66.1	66.1	66.1	62	52.7	3	7	90	0.00	29.886 
15:55	66.3	66.3	66.3	63	53.3	1	5	112	0.00	29.886 
16:00	66.4	66.4	66.4	64	53.8	1	5	112	0.00	29.876 
16:05	66.4	66.4	66.4	62	53.0	2	5	90	0.00	29.876 
16:10	66.4	66.4	66.4	62	53.0	1	5	225	0.00	29.876 
16:15	66.3	66.3	66.3	61	52.4	2	4	270	0.00	29.876 
16:20	66.1	66.1	66.1	62	52.7	1	4	68	0.00	29.876 
16:25	66.1	66.1	66.1	62	52.7	1	6	68	0.00	29.876 
16:30	66.0	66.0	66.0	62	52.6	2	7	68	0.00	29.881 
16:35	65.8	65.8	65.8	63	52.8	1	5	248	0.00	29.881 
16:40	65.8	65.8	65.8	63	52.8	2	5	45	0.00	29.881 
16:45	65.8	65.8	65.8	63	52.8	2	9	248	0.00	29.881 
16:50	65.6	65.6	65.6	63	52.7	2	7	90	0.00	29.881 
16:55	65.6	65.6	65.6	63	52.7	2	6	90	0.00	29.881 
17:00	65.5	65.5	65.5	64	53.0	3	9	90	0.00	29.879 
17:05	65.2	65.2	65.2	64	52.7	2	6	248	0.00	29.879 
17:10	65.2	65.2	65.2	65	53.1	2	10	248	0.00	29.879 
17:15	65.2	65.2	65.2	64	52.7	2	6	248	0.00	29.880 
17:20	65.2	65.2	65.2	64	52.7	2	7	68	0.00	29.880 
17:25	65.0	65.0	65.0	63	52.1	2	10	248	0.00	29.880 
17:30	65.2	65.2	65.2	64	52.7	2	5	22	0.00	29.875 
17:35	65.3	65.3	65.3	65	53.2	1	3	225	0.00	29.875 
17:40	65.5	65.5	65.5	63	52.6	2	7	270	0.00	29.875 
17:45	65.6	65.6	65.6	64	53.1	1	4	45	0.00	29.866 
17:50	65.8	65.8	65.8	63	52.8	2	5	270	0.00	29.866 
17:55	65.8	65.8	65.8	63	52.8	1	4	112	0.00	29.866 
18:00	66.0	66.0	66.0	64	53.5	1	6	112	0.00	29.858 
18:05	66.0	66.0	66.0	63	53.0	1	4	90	0.00	29.858 
18:10	66.3	66.3	66.3	64	53.7	2	7	90	0.00	29.858 
18:15	66.6	66.6	66.6	62	53.2	1	5	270	0.00	29.864 
18:20	66.4	66.4	66.4	62	53.0	1	4	248	0.00	29.864 
18:25	66.3	66.3	66.3	62	52.9	0	4	248	0.00	29.864 
18:30	66.0	66.0	66.0	62	52.6	1	6	248	0.00	29.870 
18:35	66.0	66.0	66.0	63	53.0	1	5	248	0.00	29.870 
18:40	66.0	66.0	66.0	63	53.0	1	5	68	0.00	29.870 
18:45	66.0	66.0	66.0	63	53.0	1	3	68	0.00	29.872 
18:50	65.8	65.8	65.8	63	52.8	0	2	68	0.00	29.872 
18:55	65.6	65.6	65.6	64	53.1	0	2	68	0.00	29.872 
19:00	65.5	65.5	65.5	64	53.0	0	4	68	0.00	29.871 
19:05	65.3	65.3	65.3	64	52.8	1	4	292	0.00	29.871 
19:10	65.3	65.3	65.3	64	52.8	1	4	270	0.00	29.871 
19:15	65.3	65.3	65.3	65	53.2	0	1	270	0.00	29.873 
19:20	65.2	65.2	65.2	65	53.1	0	2	270	0.00	29.873 
19:25	65.3	65.3	65.3	64	52.8	1	3	270	0.00	29.873 
19:30	65.5	65.5	65.5	65	53.4	0	2	270	0.00	29.887 
19:35	65.5	65.5	65.5	64	53.0	0	3	270	0.00	29.887 
19:40	65.3	65.3	65.3	64	52.8	0	1	270	0.00	29.887 
19:45	65.2	65.2	65.2	64	52.7	0	1	270	0.00	29.884 
19:50	64.8	64.8	64.8	65	52.8	0	1	270	0.00	29.884 
19:55	64.5	64.5	64.5	65	52.5	0	1	270	0.00	29.884 
20:00	64.2	64.2	64.2	66	52.6	0	1	270	0.00	29.885 
20:05	63.9	63.9	63.9	67	52.7	0	1	270	0.00	29.885 
20:10	63.5	63.5	63.5	68	52.7	0	1	270	0.00	29.885 
20:15	63.2	63.2	63.2	68	52.5	0	0	---	0.00	29.877 
20:20	63.1	63.1	63.1	69	52.8	0	0	---	0.00	29.877 
20:25	62.7	62.7	62.7	69	52.4	0	0	---	0.00	29.877 
20:30	62.3	62.3	62.3	70	52.4	0	0	---	0.00	29.880 
20:35	61.8	61.8	61.8	71	52.3	0	0	---	0.00	29.880 
20:40	61.3	61.3	61.3	72	52.2	0	0	---	0.00	29.880 
20:45	60.9	60.9	60.9	73	52.2	0	0	---	0.00	29.893 
20:50	60.4	60.4	60.4	75	52.4	0	0	---	0.00	29.893 
20:55	59.9	59.9	59.9	76	52.3	0	0	---	0.00	29.893 
21:00	59.6	59.6	59.6	76	52.0	0	0	---	0.00	29.905 
21:05	59.3	59.3	59.3	77	52.1	0	0	---	0.00	29.905 
21:10	59.2	59.2	59.2	78	52.3	0	0	---	0.00	29.905 
21:15	59.0	59.0	59.0	79	52.5	0	0	---	0.00	29.901 
21:20	58.9	58.9	58.9	80	52.7	0	0	---	0.00	29.901 
21:25	58.7	58.7	58.7	81	52.9	0	0	---	0.00	29.901 
21:30	58.7	58.7	58.7	81	52.9	0	0	---	0.00	29.906 
21:35	58.6	58.6	58.6	81	52.8	0	1	270	0.00	29.906 
21:40	58.4	58.4	58.4	82	52.9	0	0	---	0.00	29.906 
21:45	58.3	58.3	58.3	82	52.8	0	0	---	0.00	29.909 
21:50	58.0	58.0	58.0	82	52.5	0	0	---	0.00	29.909 
21:55	58.0	58.0	58.0	83	52.9	0	0	---	0.00	29.909 
22:00	58.0	58.0	58.0	83	52.9	0	1	270	0.00	29.898 
22:05	58.0	58.0	58.0	83	52.9	0	1	270	0.00	29.898 
22:10	58.3	58.3	58.3	82	52.8	0	0	---	0.00	29.898 
22:15	58.6	58.6	58.6	82	53.1	0	0	---	0.00	29.900 
22:20	58.7	58.7	58.7	81	52.9	0	0	---	0.00	29.900 
22:25	58.7	58.7	58.7	81	52.9	0	0	---	0.00	29.900 
22:30	58.7	58.7	58.7	81	52.9	0	0	---	0.00	29.907 
22:35	58.7	58.7	58.7	82	53.2	0	0	---	0.00	29.907 
22:40	58.7	58.7	58.7	82	53.2	0	1	270	0.00	29.907 
22:45	58.7	58.7	58.7	82	53.2	0	1	270	0.00	29.907 
22:50	58.7	58.7	58.7	81	52.9	0	1	270	0.00	29.907 
22:55	58.7	58.7	58.7	82	53.2	0	1	270	0.00	29.907 
23:00	58.7	58.7	58.7	82	53.2	0	2	270	0.00	29.892 
23:05	58.9	58.9	58.9	81	53.1	0	2	248	0.00	29.892 
23:10	59.0	59.0	59.0	81	53.2	0	3	248	0.00	29.892 
23:15	59.5	59.5	59.5	80	53.3	1	3	248	0.00	29.894 
23:20	59.8	59.8	59.8	78	52.9	1	4	112	0.00	29.894 
23:25	60.2	60.2	60.2	77	53.0	2	5	112	0.00	29.894 
23:30	60.4	60.4	60.4	76	52.8	1	4	135	0.00	29.892 
23:35	60.5	60.5	60.5	76	52.9	1	3	112	0.00	29.892 
23:40	60.7	60.7	60.7	75	52.7	1	4	112	0.00	29.892 
23:45	60.9	60.9	60.9	75	52.9	1	3	158	0.00	29.882 
23:50	60.9	60.9	60.9	75	52.9	2	4	112	0.00	29.882 
23:55	60.9	60.9	60.9	74	52.6	2	6	112	0.00	29.882 

CoCoRaHS
IN-AL-39
A2 Web Hosting
Creative Commons License
GoDaddy
search engine by freefind advanced

loaded 2018-11-20 09:09:51 • last modified 2010-11-18 10:43:29
Privacy PolicyDisclaimer
• wx.awcolley.com is powered by PmWiki v.2002016 •
• all content (unless otherwise noted) © 2018 A W Colley